createdAt,value
2023-01-29T05:00:34.029Z,89.88
2023-01-29T05:01:35.069Z,89.88
2023-01-29T05:02:35.023Z,89.88
2023-01-29T05:03:35.040Z,90.20
2023-01-29T05:04:34.949Z,90.30
2023-01-29T05:05:34.967Z,90.41
2023-01-29T05:06:34.940Z,90.61
2023-01-29T05:07:34.955Z,90.61
2023-01-29T05:08:34.964Z,90.83
2023-01-29T05:09:34.920Z,91.03
2023-01-29T05:10:34.894Z,91.46
2023-01-29T05:11:34.885Z,91.98
2023-01-29T05:12:34.900Z,92.50
2023-01-29T05:13:34.865Z,92.82
2023-01-29T05:14:34.864Z,93.13
2023-01-29T05:15:34.877Z,93.55
2023-01-29T05:16:34.822Z,94.01
2023-01-29T05:17:34.838Z,94.38
2023-01-29T05:18:35.588Z,94.49
2023-01-29T05:19:34.827Z,94.64
2023-01-29T05:20:34.811Z,94.70
2023-01-29T05:21:34.779Z,94.85
2023-01-29T05:22:34.786Z,94.85
2023-01-29T05:23:34.830Z,95.06
2023-01-29T05:24:34.756Z,94.91
2023-01-29T05:25:34.742Z,94.81
2023-01-29T05:26:34.737Z,95.01
2023-01-29T05:27:34.755Z,94.91
2023-01-29T05:28:34.721Z,95.01
2023-01-29T05:29:34.726Z,95.12
2023-01-29T05:30:34.733Z,95.33
2023-01-29T05:31:34.768Z,95.23
2023-01-29T05:32:34.707Z,95.12
2023-01-29T05:33:34.695Z,95.33
2023-01-29T05:34:34.699Z,95.64
2023-01-29T05:35:34.652Z,95.96
2023-01-29T05:36:34.626Z,96.27
2023-01-29T05:37:34.647Z,96.37
2023-01-29T05:38:34.625Z,96.69
2023-01-29T05:39:34.627Z,97.00
2023-01-29T05:40:34.585Z,97.00
2023-01-29T05:41:34.578Z,97.11
2023-01-29T05:42:34.615Z,97.22
2023-01-29T05:43:34.577Z,97.42
2023-01-29T05:44:34.545Z,97.63
2023-01-29T05:45:34.592Z,97.53
2023-01-29T05:46:34.628Z,97.63
2023-01-29T05:47:34.537Z,97.74
2023-01-29T05:48:34.517Z,97.85
2023-01-29T05:49:34.495Z,97.85
2023-01-29T05:50:34.488Z,98.05
2023-01-29T05:51:34.485Z,98.10
2023-01-29T05:52:34.476Z,98.16
2023-01-29T05:53:34.481Z,98.31
2023-01-29T05:54:34.470Z,98.37
2023-01-29T05:55:34.470Z,98.47
2023-01-29T05:56:34.419Z,98.68
2023-01-29T05:57:34.416Z,98.79
2023-01-29T05:58:34.426Z,98.89
2023-01-29T05:59:34.434Z,98.79
2023-01-29T06:00:34.411Z,98.89
2023-01-29T06:01:34.414Z,99.00
2023-01-29T06:02:34.430Z,99.00
2023-01-29T06:03:34.372Z,99.10
2023-01-29T06:04:34.336Z,99.00
2023-01-29T06:05:34.337Z,99.00
2023-01-29T06:06:34.333Z,99.10
2023-01-29T06:07:34.329Z,99.21
2023-01-29T06:08:34.310Z,99.21
2023-01-29T06:09:34.318Z,99.21
2023-01-29T06:10:34.269Z,99.21
2023-01-29T06:11:34.289Z,99.31
2023-01-29T06:12:34.264Z,99.31
2023-01-29T06:13:34.262Z,99.31
2023-01-29T06:14:34.248Z,99.31
2023-01-29T06:15:34.229Z,99.21
2023-01-29T06:16:34.284Z,99.16
2023-01-29T06:17:34.210Z,99.21
2023-01-29T06:18:34.212Z,99.16
2023-01-29T06:19:34.205Z,98.95
2023-01-29T06:20:34.184Z,99.05
2023-01-29T06:21:34.173Z,99.16
2023-01-29T06:22:34.177Z,99.05
2023-01-29T06:23:34.166Z,99.05
2023-01-29T06:24:34.145Z,98.95
2023-01-29T06:25:34.172Z,98.95
2023-01-29T06:26:34.059Z,99.16
2023-01-29T06:27:34.139Z,99.05
2023-01-29T06:28:34.106Z,98.95
2023-01-29T06:29:34.078Z,98.95
2023-01-29T06:30:34.168Z,99.05
2023-01-29T06:31:38.866Z,98.95
2023-01-29T06:32:34.110Z,98.91
2023-01-29T06:33:34.086Z,98.85
2023-01-29T06:34:34.047Z,98.69
2023-01-29T06:35:34.026Z,98.54
2023-01-29T06:36:33.980Z,98.28
2023-01-29T06:37:33.955Z,98.28
2023-01-29T06:38:33.993Z,98.28
2023-01-29T06:39:34.033Z,98.28
2023-01-29T06:40:33.974Z,98.28
2023-01-29T06:41:33.954Z,98.38
2023-01-29T06:42:33.920Z,98.28
2023-01-29T06:43:33.904Z,98.38
2023-01-29T06:44:33.896Z,98.49
2023-01-29T06:45:33.897Z,98.28
2023-01-29T06:46:33.875Z,98.28
2023-01-29T06:47:33.860Z,98.38
2023-01-29T06:48:33.824Z,98.28
2023-01-29T06:49:33.856Z,98.07
2023-01-29T06:50:33.829Z,97.96
2023-01-29T06:51:33.822Z,97.96
2023-01-29T06:52:33.836Z,97.86
2023-01-29T06:53:33.818Z,98.07
2023-01-29T06:54:33.807Z,98.18
2023-01-29T06:55:33.759Z,98.28
2023-01-29T06:56:33.785Z,98.28
2023-01-29T06:57:33.743Z,98.28
2023-01-29T06:58:33.749Z,98.18
2023-01-29T06:59:33.764Z,97.96
2023-01-29T07:00:33.812Z,97.86
2023-01-29T07:01:36.393Z,97.96
2023-01-29T07:02:33.721Z,98.07
2023-01-29T07:03:33.703Z,97.86
2023-01-29T07:04:33.695Z,97.75
2023-01-29T07:05:33.655Z,97.75
2023-01-29T07:06:33.668Z,97.81
2023-01-29T07:07:33.641Z,97.86
2023-01-29T07:08:33.630Z,97.96
2023-01-29T07:09:33.672Z,97.92
2023-01-29T07:10:33.632Z,97.96
2023-01-29T07:11:33.631Z,98.07
2023-01-29T07:12:33.607Z,98.07
2023-01-29T07:13:33.609Z,98.18
2023-01-29T07:14:33.573Z,98.18
2023-01-29T07:15:34.280Z,98.34
2023-01-29T07:16:33.564Z,98.38
2023-01-29T07:17:33.542Z,98.28
2023-01-29T07:18:33.531Z,98.24
2023-01-29T07:19:33.531Z,98.24
2023-01-29T07:20:33.551Z,98.44
2023-01-29T07:21:33.511Z,98.55
2023-01-29T07:22:33.498Z,98.75
2023-01-29T07:23:33.486Z,98.65
2023-01-29T07:24:33.511Z,98.65
2023-01-29T07:25:33.460Z,98.55
2023-01-29T07:26:33.456Z,98.69
2023-01-29T07:27:33.441Z,98.80
2023-01-29T07:28:33.436Z,99.01
2023-01-29T07:29:33.402Z,99.22
2023-01-29T07:30:33.428Z,99.22
2023-01-29T07:31:33.498Z,99.11
2023-01-29T07:32:33.389Z,99.11
2023-01-29T07:33:33.374Z,99.22
2023-01-29T07:34:33.384Z,99.32
2023-01-29T07:35:33.358Z,99.32
2023-01-29T07:36:33.352Z,99.43
2023-01-29T07:37:33.338Z,99.43
2023-01-29T07:38:33.339Z,99.32
2023-01-29T07:39:33.329Z,99.38
2023-01-29T07:40:33.339Z,99.49
2023-01-29T07:41:33.286Z,99.28
2023-01-29T07:42:33.293Z,99.18
2023-01-29T07:43:33.269Z,99.28
2023-01-29T07:44:33.265Z,99.28
2023-01-29T07:45:33.290Z,99.28
2023-01-29T07:46:33.246Z,99.28
2023-01-29T07:47:33.224Z,99.28
2023-01-29T07:48:33.235Z,99.38
2023-01-29T07:49:33.203Z,99.49
2023-01-29T07:50:33.239Z,99.70
2023-01-29T07:51:33.202Z,99.74
2023-01-29T07:52:33.187Z,99.91
2023-01-29T07:53:33.188Z,99.99
2023-01-29T07:54:33.197Z,99.99
2023-01-29T07:55:33.157Z,99.99
2023-01-29T07:56:33.137Z,99.99
2023-01-29T07:57:33.132Z,99.99
2023-01-29T07:58:35.584Z,99.99
2023-01-29T07:59:33.108Z,99.99
2023-01-29T08:00:33.087Z,99.80
2023-01-29T08:01:33.097Z,99.99
2023-01-29T08:02:33.112Z,99.99
2023-01-29T08:03:33.150Z,99.99
2023-01-29T08:04:33.059Z,99.99
2023-01-29T08:05:33.079Z,99.99
2023-01-29T08:06:33.052Z,99.99
2023-01-29T08:07:33.022Z,99.99
2023-01-29T08:08:33.016Z,99.99
2023-01-29T08:09:32.999Z,99.99
2023-01-29T08:10:32.995Z,99.99
2023-01-29T08:11:33.004Z,99.99
2023-01-29T08:12:32.993Z,99.99
2023-01-29T08:13:33.008Z,99.99
2023-01-29T08:14:32.946Z,99.99
2023-01-29T08:15:32.940Z,99.99
2023-01-29T08:16:32.942Z,99.99
2023-01-29T08:17:32.918Z,99.99
2023-01-29T08:18:32.900Z,99.99
2023-01-29T08:19:32.899Z,99.99
2023-01-29T08:20:32.887Z,99.99
2023-01-29T08:21:32.903Z,99.99
2023-01-29T08:22:32.873Z,99.99
2023-01-29T08:23:32.849Z,99.99
2023-01-29T08:24:47.417Z,99.99
2023-01-29T08:25:32.870Z,99.99
2023-01-29T08:26:32.853Z,99.99
2023-01-29T08:27:32.835Z,99.99
2023-01-29T08:28:32.799Z,99.99
2023-01-29T08:29:32.790Z,99.99
2023-01-29T08:30:32.807Z,99.99
2023-01-29T08:31:32.792Z,99.99
2023-01-29T08:32:33.030Z,99.99
2023-01-29T08:33:39.019Z,99.99
2023-01-29T08:34:32.771Z,99.99
2023-01-29T08:35:32.740Z,99.99
2023-01-29T08:36:32.726Z,99.99
2023-01-29T08:37:32.708Z,99.99
2023-01-29T08:38:32.703Z,99.99
2023-01-29T08:39:34.426Z,99.99
2023-01-29T08:40:32.696Z,99.99
2023-01-29T08:41:32.706Z,99.99
2023-01-29T08:42:32.666Z,99.99
2023-01-29T08:43:32.663Z,99.99
2023-01-29T08:44:32.632Z,99.99
2023-01-29T08:45:32.627Z,99.99
2023-01-29T08:46:32.649Z,99.99
2023-01-29T08:47:32.641Z,99.99
2023-01-29T08:48:32.609Z,99.99
2023-01-29T08:49:32.588Z,99.99
2023-01-29T08:50:32.577Z,99.99
2023-01-29T08:51:32.571Z,99.99
2023-01-29T08:52:32.571Z,99.99
2023-01-29T08:53:32.552Z,99.99
2023-01-29T08:54:32.527Z,99.99
2023-01-29T08:55:32.527Z,99.99
2023-01-29T08:56:32.506Z,99.99
2023-01-29T08:57:32.541Z,99.99
2023-01-29T08:58:32.529Z,99.99
2023-01-29T08:59:32.549Z,99.99
2023-01-29T09:00:32.460Z,99.99
2023-01-29T09:01:32.543Z,99.99
2023-01-29T09:02:32.594Z,99.99
2023-01-29T09:03:32.477Z,99.99
2023-01-29T09:04:32.478Z,99.99
2023-01-29T09:05:32.437Z,99.99
2023-01-29T09:06:32.419Z,99.99
2023-01-29T09:07:32.404Z,99.99
2023-01-29T09:08:32.383Z,99.99
2023-01-29T09:09:32.379Z,99.99
2023-01-29T09:10:32.386Z,99.99
2023-01-29T09:11:32.386Z,99.99
2023-01-29T09:12:32.408Z,99.99
2023-01-29T09:13:32.340Z,99.99
2023-01-29T09:14:32.329Z,99.99
2023-01-29T09:15:32.349Z,99.99
2023-01-29T09:16:32.377Z,99.99
2023-01-29T09:17:32.331Z,99.99
2023-01-29T09:18:32.349Z,99.99
2023-01-29T09:19:32.307Z,99.99
2023-01-29T09:20:32.278Z,99.99
2023-01-29T09:21:32.250Z,99.99
2023-01-29T09:22:32.260Z,99.99
2023-01-29T09:23:32.304Z,99.99
2023-01-29T09:24:32.234Z,99.99
2023-01-29T09:25:32.243Z,99.99
2023-01-29T09:26:32.270Z,99.99
2023-01-29T09:27:32.188Z,99.99
2023-01-29T09:28:32.196Z,99.82
2023-01-29T09:29:34.134Z,99.92
2023-01-29T09:30:32.212Z,99.51
2023-01-29T09:31:32.314Z,99.29
2023-01-29T09:33:32.169Z,99.61
2023-01-29T09:34:32.133Z,99.51
2023-01-29T09:35:32.114Z,99.08
2023-01-29T09:36:32.103Z,99.08
2023-01-29T09:37:32.086Z,99.15
2023-01-29T09:38:32.099Z,99.15
2023-01-29T09:39:32.078Z,99.04
2023-01-29T09:40:32.073Z,98.83
2023-01-29T09:41:32.042Z,98.72
2023-01-29T09:42:32.037Z,98.52
2023-01-29T09:43:32.024Z,98.41
2023-01-29T09:44:32.015Z,98.62
2023-01-29T09:45:32.008Z,98.52
2023-01-29T09:46:32.008Z,98.31
2023-01-29T09:47:31.983Z,98.41
2023-01-29T09:48:31.992Z,97.85
2023-01-29T09:49:31.991Z,97.78
2023-01-29T09:50:31.978Z,97.68
2023-01-29T09:51:31.945Z,97.64
2023-01-29T09:52:31.970Z,97.64
2023-01-29T09:53:31.968Z,97.85
2023-01-29T09:54:31.923Z,97.53
2023-01-29T09:55:31.887Z,97.53
2023-01-29T09:56:31.906Z,97.22
2023-01-29T09:57:31.885Z,96.91
2023-01-29T09:58:31.908Z,97.01
2023-01-29T09:59:31.867Z,97.11
2023-01-29T10:00:31.864Z,97.22
2023-01-29T10:01:31.957Z,96.80
2023-01-29T10:02:31.833Z,96.70
2023-01-29T10:03:31.824Z,96.49
2023-01-29T10:04:31.865Z,95.92
2023-01-29T10:05:31.810Z,95.82
2023-01-29T10:06:31.783Z,95.72
2023-01-29T10:07:31.774Z,95.61
2023-01-29T10:08:31.774Z,95.61
2023-01-29T10:09:31.757Z,95.40
2023-01-29T10:10:31.735Z,95.19
2023-01-29T10:11:31.732Z,95.04
2023-01-29T10:12:31.720Z,94.94
2023-01-29T10:13:31.707Z,94.21
2023-01-29T10:14:31.743Z,94.21
2023-01-29T10:15:31.679Z,94.42
2023-01-29T10:16:31.751Z,93.90
2023-01-29T10:17:31.681Z,94.00
2023-01-29T10:18:31.661Z,94.00
2023-01-29T10:19:31.652Z,93.79
2023-01-29T10:20:31.675Z,93.54
2023-01-29T10:21:31.659Z,92.91
2023-01-29T10:22:31.638Z,92.50
2023-01-29T10:23:33.487Z,92.25
2023-01-29T10:24:31.634Z,91.62
2023-01-29T10:25:31.589Z,91.62
2023-01-29T10:26:31.618Z,90.54
2023-01-29T10:27:31.603Z,90.01
2023-01-29T10:28:31.548Z,89.87
2023-01-29T10:29:31.551Z,89.45
2023-01-29T10:30:31.550Z,89.56
2023-01-29T10:31:31.690Z,89.70
2023-01-29T10:32:31.517Z,89.81
2023-01-29T10:33:48.812Z,89.81
2023-01-29T10:34:31.527Z,89.66
2023-01-29T10:35:31.495Z,88.52
2023-01-29T10:36:31.547Z,88.83
2023-01-29T10:37:31.525Z,88.62
2023-01-29T10:38:31.463Z,88.52
2023-01-29T10:39:31.478Z,88.42
2023-01-29T10:40:31.444Z,88.62
2023-01-29T10:41:31.419Z,88.17
2023-01-29T10:42:31.454Z,87.33
2023-01-29T10:43:31.401Z,87.33
2023-01-29T10:44:31.423Z,87.29
2023-01-29T10:45:31.375Z,87.08
2023-01-29T10:46:31.359Z,87.71
2023-01-29T10:47:31.391Z,86.88
2023-01-29T10:48:31.348Z,86.88
2023-01-29T10:49:31.344Z,86.42
2023-01-29T10:50:31.341Z,85.80
2023-01-29T10:51:31.326Z,85.83
2023-01-29T10:52:31.291Z,85.73
2023-01-29T10:53:31.297Z,86.08
2023-01-29T10:54:31.328Z,86.08
2023-01-29T10:55:31.263Z,86.40
2023-01-29T10:56:31.273Z,86.50
2023-01-29T10:57:31.258Z,85.98
2023-01-29T10:58:31.236Z,86.71
2023-01-29T10:59:31.228Z,86.19
2023-01-29T11:00:31.239Z,85.98
2023-01-29T11:01:31.232Z,85.88
2023-01-29T11:02:31.233Z,85.77
2023-01-29T11:03:31.266Z,85.77
2023-01-29T11:04:31.187Z,86.19
2023-01-29T11:05:31.167Z,86.40
2023-01-29T11:06:31.173Z,86.04
2023-01-29T11:07:31.143Z,85.83
2023-01-29T11:08:31.126Z,85.63
2023-01-29T11:10:31.141Z,84.94
2023-01-29T11:11:31.116Z,85.11
2023-01-29T11:12:31.131Z,85.14
2023-01-29T11:13:31.092Z,85.56
2023-01-29T11:14:31.064Z,85.14
2023-01-29T11:15:31.069Z,85.14
2023-01-29T11:16:31.062Z,85.46
2023-01-29T11:17:31.046Z,85.35
2023-01-29T11:18:31.043Z,85.42
2023-01-29T11:19:31.016Z,85.31
2023-01-29T11:20:31.014Z,85.11
2023-01-29T11:21:31.012Z,85.11
2023-01-29T11:22:30.975Z,84.48
2023-01-29T11:23:30.991Z,84.59
2023-01-29T11:24:30.974Z,84.48
2023-01-29T11:25:30.975Z,84.17
2023-01-29T11:26:31.002Z,83.86
2023-01-29T11:27:30.943Z,84.27
2023-01-29T11:28:30.917Z,84.17
2023-01-29T11:29:30.910Z,84.38
2023-01-29T11:30:30.934Z,84.17
2023-01-29T11:31:31.013Z,83.96
2023-01-29T11:32:30.900Z,83.65
2023-01-29T11:33:30.876Z,83.23
2023-01-29T11:34:30.854Z,83.13
2023-01-29T11:35:30.852Z,83.54
2023-01-29T11:36:30.850Z,83.72
2023-01-29T11:37:30.863Z,82.99
2023-01-29T11:38:30.840Z,82.68
2023-01-29T11:39:30.827Z,83.20
2023-01-29T11:40:30.796Z,83.09
2023-01-29T11:41:30.779Z,83.20
2023-01-29T11:42:30.777Z,83.09
2023-01-29T11:43:30.773Z,83.51
2023-01-29T11:44:30.754Z,83.20
2023-01-29T11:45:30.767Z,82.99
2023-01-29T11:46:30.772Z,82.57
2023-01-29T11:47:30.784Z,82.78
2023-01-29T11:48:30.700Z,82.99
2023-01-29T11:49:30.751Z,83.20
2023-01-29T11:50:30.682Z,82.57
2023-01-29T11:51:30.695Z,82.78
2023-01-29T11:52:30.706Z,82.78
2023-01-29T11:53:30.686Z,82.99
2023-01-29T11:54:30.660Z,82.89
2023-01-29T11:55:40.984Z,82.46
2023-01-29T11:56:30.668Z,82.26
2023-01-29T11:57:30.847Z,82.71
2023-01-29T11:58:30.600Z,82.78
2023-01-29T11:59:30.600Z,83.09
2023-01-29T12:00:30.573Z,83.20
2023-01-29T12:01:30.576Z,82.78
2023-01-29T12:02:30.565Z,82.36
2023-01-29T12:03:30.637Z,81.95
2023-01-29T12:04:30.539Z,81.95
2023-01-29T12:05:30.653Z,82.78
2023-01-29T12:06:30.520Z,82.68
2023-01-29T12:07:30.524Z,82.26
2023-01-29T12:08:30.515Z,82.26
2023-01-29T12:09:30.498Z,81.95
2023-01-29T12:10:30.486Z,81.95
2023-01-29T12:11:30.490Z,81.63
2023-01-29T12:12:30.464Z,81.53
2023-01-29T12:13:30.478Z,81.74
2023-01-29T12:14:30.449Z,81.74
2023-01-29T12:15:30.417Z,81.95
2023-01-29T12:16:30.505Z,81.95
2023-01-29T12:17:30.426Z,81.53
2023-01-29T12:18:30.442Z,81.95
2023-01-29T12:19:30.422Z,81.74
2023-01-29T12:20:30.374Z,82.05
2023-01-29T12:21:30.353Z,82.26
2023-01-29T12:22:30.360Z,81.74
2023-01-29T12:23:30.365Z,81.95
2023-01-29T12:24:30.345Z,81.95
2023-01-29T12:25:30.315Z,81.39
2023-01-29T12:26:30.318Z,81.32
2023-01-29T12:27:30.293Z,81.63
2023-01-29T12:28:30.298Z,81.32
2023-01-29T12:29:30.277Z,81.63
2023-01-29T12:30:30.297Z,81.39
2023-01-29T12:31:30.319Z,81.39
2023-01-29T12:32:30.255Z,81.01
2023-01-29T12:33:30.229Z,81.22
2023-01-29T12:34:30.269Z,81.32
2023-01-29T12:35:30.217Z,81.01
2023-01-29T12:36:30.225Z,81.22
2023-01-29T12:37:30.185Z,81.32
2023-01-29T12:38:30.198Z,81.43
2023-01-29T12:39:30.208Z,81.43
2023-01-29T12:40:30.175Z,81.53
2023-01-29T12:41:30.154Z,81.53
2023-01-29T12:42:30.142Z,81.32
2023-01-29T12:43:30.131Z,81.63
2023-01-29T12:44:30.159Z,81.53
2023-01-29T12:45:30.113Z,81.53
2023-01-29T12:46:30.168Z,81.32
2023-01-29T12:47:30.097Z,81.53
2023-01-29T12:48:30.095Z,81.63
2023-01-29T12:49:30.077Z,81.18
2023-01-29T12:50:30.079Z,81.22
2023-01-29T12:51:30.061Z,81.32
2023-01-29T12:52:30.017Z,81.18
2023-01-29T12:53:30.082Z,81.39
2023-01-29T12:54:30.025Z,81.53
2023-01-29T12:55:30.003Z,81.22
2023-01-29T12:56:30.053Z,81.22
2023-01-29T12:57:30.000Z,81.84
2023-01-29T12:58:30.001Z,81.84
2023-01-29T12:59:29.991Z,81.74
2023-01-29T13:00:29.942Z,81.84
2023-01-29T13:01:29.951Z,82.15
2023-01-29T13:02:29.916Z,81.95
2023-01-29T13:03:30.655Z,81.74
2023-01-29T13:04:29.918Z,81.95
2023-01-29T13:05:29.899Z,81.74
2023-01-29T13:06:29.898Z,81.63
2023-01-29T13:07:29.889Z,81.74
2023-01-29T13:08:29.848Z,81.63
2023-01-29T13:09:29.864Z,81.53
2023-01-29T13:10:29.847Z,81.43
2023-01-29T13:11:29.828Z,81.43
2023-01-29T13:12:29.837Z,81.63
2023-01-29T13:13:29.817Z,81.84
2023-01-29T13:14:29.815Z,81.63
2023-01-29T13:15:29.832Z,81.53
2023-01-29T13:16:29.855Z,81.63
2023-01-29T13:17:29.766Z,81.63
2023-01-29T13:18:29.749Z,81.74
2023-01-29T13:19:29.779Z,81.63
2023-01-29T13:20:30.306Z,81.53
2023-01-29T13:21:29.736Z,81.63
2023-01-29T13:22:29.713Z,81.74
2023-01-29T13:23:29.713Z,81.53
2023-01-29T13:24:29.692Z,81.43
2023-01-29T13:25:29.691Z,81.84
2023-01-29T13:26:29.721Z,81.74
2023-01-29T13:27:29.661Z,82.05
2023-01-29T13:28:29.652Z,81.84
2023-01-29T13:29:29.647Z,81.84
2023-01-29T13:30:29.646Z,82.05
2023-01-29T13:31:29.738Z,82.05
2023-01-29T13:32:29.606Z,82.15
2023-01-29T13:33:29.594Z,82.15
2023-01-29T13:34:29.580Z,82.15
2023-01-29T13:35:29.577Z,82.05
2023-01-29T13:36:29.560Z,81.53
2023-01-29T13:37:29.565Z,81.63
2023-01-29T13:38:29.539Z,81.84
2023-01-29T13:39:29.563Z,81.95
2023-01-29T13:40:29.509Z,81.84
2023-01-29T13:41:29.551Z,82.05
2023-01-29T13:42:29.500Z,82.15
2023-01-29T13:43:29.516Z,82.51
2023-01-29T13:44:29.488Z,82.40
2023-01-29T13:45:29.482Z,82.51
2023-01-29T13:46:29.458Z,82.61
2023-01-29T13:47:29.460Z,82.61
2023-01-29T13:48:29.437Z,83.03
2023-01-29T13:49:29.442Z,82.92
2023-01-29T13:50:29.443Z,82.92
2023-01-29T13:51:29.413Z,83.13
2023-01-29T13:52:29.395Z,83.03
2023-01-29T13:53:29.397Z,83.03
2023-01-29T13:54:29.391Z,83.13
2023-01-29T13:55:29.387Z,83.23
2023-01-29T13:56:29.381Z,83.13
2023-01-29T13:57:29.348Z,83.34
2023-01-29T13:58:29.323Z,83.34
2023-01-29T13:59:29.330Z,83.34
2023-01-29T14:00:29.363Z,83.34
2023-01-29T14:01:29.404Z,83.23
2023-01-29T14:02:29.350Z,83.34
2023-01-29T14:03:39.932Z,83.48
2023-01-29T14:04:29.265Z,83.44
2023-01-29T14:05:29.302Z,83.80
2023-01-29T14:06:29.287Z,83.75
2023-01-29T14:07:29.228Z,83.90
2023-01-29T14:08:29.242Z,84.21
2023-01-29T14:09:29.229Z,84.52
2023-01-29T14:10:29.244Z,84.83
2023-01-29T14:11:29.207Z,85.25
2023-01-29T14:12:29.193Z,85.56
2023-01-29T14:13:29.167Z,85.46
2023-01-29T14:14:29.165Z,85.77
2023-01-29T14:15:29.173Z,85.88
2023-01-29T14:16:29.185Z,86.19
2023-01-29T14:17:29.131Z,86.40
2023-01-29T14:18:29.133Z,86.65
2023-01-29T14:19:29.111Z,86.85
2023-01-29T14:20:38.244Z,87.06
2023-01-29T14:21:29.094Z,87.27
2023-01-29T14:22:29.083Z,87.68
2023-01-29T14:23:29.071Z,87.99
2023-01-29T14:24:29.047Z,88.42
2023-01-29T14:25:29.050Z,88.93
2023-01-29T14:26:29.067Z,89.45
2023-01-29T14:27:29.043Z,89.87
2023-01-29T14:28:29.020Z,89.98
2023-01-29T14:29:34.609Z,89.87
2023-01-29T14:30:29.017Z,90.39
2023-01-29T14:31:29.037Z,90.70
2023-01-29T14:32:28.976Z,90.60
2023-01-29T14:33:28.959Z,90.75
2023-01-29T14:34:28.951Z,91.16
2023-01-29T14:35:28.941Z,91.16
2023-01-29T14:36:28.952Z,91.47
2023-01-29T14:37:28.946Z,91.89
2023-01-29T14:38:28.920Z,92.00
2023-01-29T14:39:28.907Z,92.31
2023-01-29T14:40:28.908Z,92.31
2023-01-29T14:41:28.881Z,92.31
2023-01-29T14:42:28.852Z,92.31
2023-01-29T14:43:28.865Z,92.41
2023-01-29T14:44:28.851Z,92.31
2023-01-29T14:45:28.847Z,92.52
2023-01-29T14:46:28.880Z,92.31
2023-01-29T14:47:28.816Z,92.41
2023-01-29T14:48:28.802Z,92.52
2023-01-29T14:49:28.797Z,92.52
2023-01-29T14:50:28.805Z,92.41
2023-01-29T14:51:28.785Z,92.83
2023-01-29T14:52:28.759Z,93.04
2023-01-29T14:53:28.751Z,93.14
2023-01-29T14:54:28.743Z,93.24
2023-01-29T14:55:28.727Z,93.14
2023-01-29T14:56:28.746Z,93.56
2023-01-29T14:57:28.701Z,93.60
2023-01-29T14:58:28.740Z,93.60
2023-01-29T14:59:28.692Z,93.60
2023-01-29T15:00:28.679Z,93.60
2023-01-29T15:01:28.725Z,93.71
2023-01-29T15:02:28.670Z,93.60
2023-01-29T15:03:28.652Z,93.71
2023-01-29T15:04:28.648Z,93.40
2023-01-29T15:05:28.638Z,93.60
2023-01-29T15:06:28.602Z,93.81
2023-01-29T15:07:28.608Z,93.91
2023-01-29T15:08:28.585Z,94.02
2023-01-29T15:09:35.875Z,94.12
2023-01-29T15:10:28.575Z,93.91
2023-01-29T15:11:28.573Z,94.12
2023-01-29T15:12:28.574Z,94.43
2023-01-29T15:13:28.548Z,94.33
2023-01-29T15:14:28.562Z,94.23
2023-01-29T15:15:28.555Z,94.23
2023-01-29T15:16:28.535Z,94.23
2023-01-29T15:17:28.509Z,94.02
2023-01-29T15:18:28.482Z,94.23
2023-01-29T15:19:28.484Z,94.43
2023-01-29T15:20:28.468Z,94.23
2023-01-29T15:21:28.470Z,94.12
2023-01-29T15:22:28.495Z,93.81
2023-01-29T15:23:28.449Z,94.12
2023-01-29T15:24:28.431Z,94.12
2023-01-29T15:25:28.428Z,94.43
2023-01-29T15:26:28.425Z,94.43
2023-01-29T15:27:28.422Z,94.43
2023-01-29T15:28:28.388Z,94.75
2023-01-29T15:29:28.422Z,95.00
2023-01-29T15:30:28.370Z,95.06
2023-01-29T15:31:28.478Z,95.06
2023-01-29T15:32:28.360Z,94.85
2023-01-29T15:33:28.359Z,94.75
2023-01-29T15:34:28.329Z,94.96
2023-01-29T15:35:28.366Z,94.58
2023-01-29T15:36:28.352Z,94.37
2023-01-29T15:37:28.311Z,94.58
2023-01-29T15:38:28.285Z,94.69
2023-01-29T15:39:28.288Z,94.79
2023-01-29T15:40:28.280Z,94.79
2023-01-29T15:41:28.256Z,94.48
2023-01-29T15:42:28.249Z,94.79
2023-01-29T15:43:28.232Z,94.79
2023-01-29T15:44:28.248Z,94.69
2023-01-29T15:45:28.211Z,94.79
2023-01-29T15:46:28.201Z,94.90
2023-01-29T15:47:28.269Z,94.79
2023-01-29T15:48:28.190Z,94.69
2023-01-29T15:49:28.191Z,94.90
2023-01-29T15:50:29.055Z,94.79
2023-01-29T15:51:28.151Z,95.10
2023-01-29T15:52:28.168Z,95.10
2023-01-29T15:53:28.142Z,95.00
2023-01-29T15:54:28.117Z,95.00
2023-01-29T15:55:28.125Z,95.00
2023-01-29T15:56:28.098Z,95.00
2023-01-29T15:57:28.104Z,94.69
2023-01-29T15:58:28.107Z,94.58
2023-01-29T15:59:28.105Z,94.90
2023-01-29T16:00:28.068Z,94.90
2023-01-29T16:01:28.111Z,94.79
2023-01-29T16:02:28.050Z,94.58
2023-01-29T16:03:28.048Z,94.48
2023-01-29T16:04:28.035Z,94.58
2023-01-29T16:05:28.021Z,94.58
2023-01-29T16:06:28.047Z,94.48
2023-01-29T16:07:27.981Z,94.58
2023-01-29T16:08:27.983Z,94.58
2023-01-29T16:09:27.970Z,94.48
2023-01-29T16:10:28.032Z,94.37
2023-01-29T16:11:28.043Z,94.37
2023-01-29T16:12:28.009Z,94.58
2023-01-29T16:13:27.994Z,94.37
2023-01-29T16:14:27.997Z,94.48
2023-01-29T16:15:27.976Z,94.27
2023-01-29T16:16:28.190Z,94.27
2023-01-29T16:17:27.948Z,94.17
2023-01-29T16:18:27.944Z,94.17
2023-01-29T16:19:27.905Z,94.06
2023-01-29T16:20:27.926Z,93.96
2023-01-29T16:21:27.909Z,94.06
2023-01-29T16:22:27.923Z,94.06
2023-01-29T16:23:27.945Z,94.06
2023-01-29T16:24:27.868Z,94.06
2023-01-29T16:25:27.843Z,94.06
2023-01-29T16:26:27.897Z,94.27
2023-01-29T16:27:27.828Z,94.37
2023-01-29T16:28:27.850Z,94.37
2023-01-29T16:29:27.818Z,94.06
2023-01-29T16:30:27.941Z,93.96
2023-01-29T16:31:27.900Z,93.96
2023-01-29T16:32:27.813Z,94.06
2023-01-29T16:33:27.773Z,94.06
2023-01-29T16:34:27.747Z,93.96
2023-01-29T16:35:27.756Z,94.17
2023-01-29T16:36:27.740Z,94.17
2023-01-29T16:37:27.732Z,94.37
2023-01-29T16:38:27.734Z,94.37
2023-01-29T16:39:27.694Z,94.27
2023-01-29T16:40:27.715Z,94.27
2023-01-29T16:41:27.684Z,94.27
2023-01-29T16:42:27.703Z,94.27
2023-01-29T16:43:31.318Z,94.27
2023-01-29T16:44:27.682Z,94.27
2023-01-29T16:45:27.674Z,94.37
2023-01-29T16:46:27.687Z,94.27
2023-01-29T16:47:27.659Z,94.27
2023-01-29T16:48:27.635Z,94.37
2023-01-29T16:49:27.614Z,94.37
2023-01-29T16:50:27.625Z,94.42
2023-01-29T16:51:27.619Z,94.48
2023-01-29T16:52:27.573Z,94.48
2023-01-29T16:53:27.568Z,94.37
2023-01-29T16:54:27.579Z,94.37
2023-01-29T16:55:27.528Z,94.31
2023-01-29T16:56:27.550Z,94.58
2023-01-29T16:57:27.524Z,94.63
2023-01-29T16:58:27.504Z,94.42
2023-01-29T16:59:27.533Z,94.37
2023-01-29T17:00:27.636Z,94.37
2023-01-29T17:01:27.498Z,94.42
2023-01-29T17:02:27.531Z,94.42
2023-01-29T17:03:27.460Z,94.42
2023-01-29T17:04:27.470Z,94.10
2023-01-29T17:05:27.444Z,94.10
2023-01-29T17:06:27.437Z,94.17
2023-01-29T17:07:27.444Z,94.06
2023-01-29T17:08:27.427Z,94.17
2023-01-29T17:09:27.394Z,94.27
2023-01-29T17:10:28.094Z,94.17
2023-01-29T17:11:27.409Z,93.90
2023-01-29T17:12:27.370Z,93.75
2023-01-29T17:13:27.350Z,93.90
2023-01-29T17:14:27.375Z,93.85
2023-01-29T17:15:27.333Z,93.85
2023-01-29T17:16:27.469Z,93.75
2023-01-29T17:17:27.349Z,93.37
2023-01-29T17:18:27.304Z,93.59
2023-01-29T17:19:27.334Z,93.59
2023-01-29T17:20:27.875Z,93.37
2023-01-29T17:21:27.262Z,93.27
2023-01-29T17:22:27.272Z,93.33
2023-01-29T17:23:27.244Z,93.23
2023-01-29T17:24:27.270Z,93.33
2023-01-29T17:25:27.233Z,93.44
2023-01-29T17:26:27.267Z,93.48
2023-01-29T17:27:27.212Z,93.33
2023-01-29T17:28:27.209Z,93.48
2023-01-29T17:29:27.213Z,93.65
2023-01-29T17:30:27.201Z,93.54
2023-01-29T17:31:27.306Z,93.44
2023-01-29T17:32:27.198Z,93.27
2023-01-29T17:33:27.154Z,93.54
2023-01-29T17:34:27.130Z,93.48
2023-01-29T17:35:27.138Z,93.48
2023-01-29T17:36:27.136Z,93.16
2023-01-29T17:37:27.115Z,93.23
2023-01-29T17:38:27.138Z,93.23
2023-01-29T17:39:27.076Z,93.12
2023-01-29T17:40:27.103Z,93.02
2023-01-29T17:41:27.085Z,93.02
2023-01-29T17:42:27.049Z,92.81
2023-01-29T17:43:27.084Z,92.91
2023-01-29T17:44:27.058Z,92.81
2023-01-29T17:45:27.056Z,92.50
2023-01-29T17:46:27.009Z,92.29
2023-01-29T17:47:27.368Z,92.40
2023-01-29T17:48:26.993Z,92.50
2023-01-29T17:49:26.980Z,92.40
2023-01-29T17:50:26.978Z,92.50
2023-01-29T17:51:26.997Z,92.40
2023-01-29T17:52:26.983Z,92.40
2023-01-29T17:53:39.811Z,92.40
2023-01-29T17:54:26.950Z,92.50